sensor_id;sensor_type;location;lat;lon;timestamp;pressure;altitude;pressure_sealevel;temperature;humidity
3598;BME280;1813;52.016;8.714;2022-11-20T00:00:03;-16261.94;;;-139.71;65.02
3598;BME280;1813;52.016;8.714;2022-11-20T00:02:37;-16261.94;;;-139.71;65.28
3598;BME280;1813;52.016;8.714;2022-11-20T00:05:12;-16261.94;;;-139.71;65.48
3598;BME280;1813;52.016;8.714;2022-11-20T00:07:46;-16261.94;;;-139.71;65.28
3598;BME280;1813;52.016;8.714;2022-11-20T00:10:22;-16261.94;;;-139.71;65.03
3598;BME280;1813;52.016;8.714;2022-11-20T00:12:57;-16261.94;;;-139.71;64.92
3598;BME280;1813;52.016;8.714;2022-11-20T00:15:31;-16261.94;;;-139.71;64.74
3598;BME280;1813;52.016;8.714;2022-11-20T00:18:05;-16261.94;;;-139.71;64.62
3598;BME280;1813;52.016;8.714;2022-11-20T00:20:39;-16261.94;;;-139.71;64.65
3598;BME280;1813;52.016;8.714;2022-11-20T00:23:13;-16261.94;;;-139.71;64.33
3598;BME280;1813;52.016;8.714;2022-11-20T00:25:49;-16261.94;;;-139.71;63.93
3598;BME280;1813;52.016;8.714;2022-11-20T00:28:23;-16261.94;;;-139.71;63.85
3598;BME280;1813;52.016;8.714;2022-11-20T00:31:01;-16261.94;;;-139.71;63.80
3598;BME280;1813;52.016;8.714;2022-11-20T00:33:35;-16261.94;;;-139.71;63.91
3598;BME280;1813;52.016;8.714;2022-11-20T00:36:11;-16261.94;;;-139.71;63.81
3598;BME280;1813;52.016;8.714;2022-11-20T00:38:46;-16261.94;;;-139.71;63.81
3598;BME280;1813;52.016;8.714;2022-11-20T00:41:23;-16261.94;;;-139.71;63.59
3598;BME280;1813;52.016;8.714;2022-11-20T00:43:57;-16261.94;;;-139.71;63.71
3598;BME280;1813;52.016;8.714;2022-11-20T00:46:31;-16261.94;;;-139.71;63.85
3598;BME280;1813;52.016;8.714;2022-11-20T00:49:05;-16261.94;;;-139.71;63.86
3598;BME280;1813;52.016;8.714;2022-11-20T00:51:38;-16261.94;;;-139.71;63.86
3598;BME280;1813;52.016;8.714;2022-11-20T00:54:12;-16261.94;;;-139.71;63.82
3598;BME280;1813;52.016;8.714;2022-11-20T00:56:49;-16261.94;;;-139.71;63.76
3598;BME280;1813;52.016;8.714;2022-11-20T00:59:22;-16261.94;;;-139.71;63.97
3598;BME280;1813;52.016;8.714;2022-11-20T01:01:56;-16261.94;;;-139.71;64.01
3598;BME280;1813;52.016;8.714;2022-11-20T01:04:30;-16261.94;;;-139.71;64.11
3598;BME280;1813;52.016;8.714;2022-11-20T01:07:04;-16261.94;;;-139.71;64.24
3598;BME280;1813;52.016;8.714;2022-11-20T01:09:37;-16261.94;;;-139.71;64.30
3598;BME280;1813;52.016;8.714;2022-11-20T01:12:14;-16261.94;;;-139.71;63.86
3598;BME280;1813;52.016;8.714;2022-11-20T01:14:47;-16261.94;;;-139.71;63.69
3598;BME280;1813;52.016;8.714;2022-11-20T01:17:21;-16261.94;;;-139.71;63.78
3598;BME280;1813;52.016;8.714;2022-11-20T01:19:55;-16261.94;;;-139.71;63.85
3598;BME280;1813;52.016;8.714;2022-11-20T01:22:29;-16261.94;;;-139.71;63.81
3598;BME280;1813;52.016;8.714;2022-11-20T01:25:03;-16261.94;;;-139.71;63.62
3598;BME280;1813;52.016;8.714;2022-11-20T01:27:40;-16261.94;;;-139.71;63.50
3598;BME280;1813;52.016;8.714;2022-11-20T01:30:13;-16261.94;;;-139.71;63.36
3598;BME280;1813;52.016;8.714;2022-11-20T01:32:47;-16261.94;;;-139.71;62.93
3598;BME280;1813;52.016;8.714;2022-11-20T01:35:21;-16261.94;;;-139.71;62.45
3598;BME280;1813;52.016;8.714;2022-11-20T01:37:55;-16261.94;;;-139.71;62.06
3598;BME280;1813;52.016;8.714;2022-11-20T01:40:29;-16261.94;;;-139.71;61.74
3598;BME280;1813;52.016;8.714;2022-11-20T01:43:13;-16261.94;;;-139.71;61.98
3598;BME280;1813;52.016;8.714;2022-11-20T01:46:02;-16261.94;;;-139.71;62.33
3598;BME280;1813;52.016;8.714;2022-11-20T01:48:39;-16261.94;;;-139.71;62.70
3598;BME280;1813;52.016;8.714;2022-11-20T01:51:21;-16261.94;;;-139.71;62.91
3598;BME280;1813;52.016;8.714;2022-11-20T01:53:59;-16261.94;;;-139.71;63.07
3598;BME280;1813;52.016;8.714;2022-11-20T01:56:37;-16261.94;;;-139.71;62.89
3598;BME280;1813;52.016;8.714;2022-11-20T01:59:15;-16261.94;;;-139.71;62.77
3598;BME280;1813;52.016;8.714;2022-11-20T02:01:51;-16261.94;;;-139.71;62.82
3598;BME280;1813;52.016;8.714;2022-11-20T02:04:25;-16261.94;;;-139.71;62.64
3598;BME280;1813;52.016;8.714;2022-11-20T02:07:00;-16261.94;;;-139.71;62.62
3598;BME280;1813;52.016;8.714;2022-11-20T02:09:35;-16261.94;;;-139.71;62.44
3598;BME280;1813;52.016;8.714;2022-11-20T02:12:09;-16261.94;;;-139.71;62.18
3598;BME280;1813;52.016;8.714;2022-11-20T02:15:06;-16261.94;;;-139.71;62.35
3598;BME280;1813;52.016;8.714;2022-11-20T02:17:37;-16261.94;;;-139.71;62.31
3598;BME280;1813;52.016;8.714;2022-11-20T02:20:11;-16261.94;;;-139.71;62.27
3598;BME280;1813;52.016;8.714;2022-11-20T02:22:50;-16261.94;;;-139.71;62.38
3598;BME280;1813;52.016;8.714;2022-11-20T02:25:31;-16261.94;;;-139.71;62.54
3598;BME280;1813;52.016;8.714;2022-11-20T02:28:06;-16261.94;;;-139.71;62.37
3598;BME280;1813;52.016;8.714;2022-11-20T02:30:40;-16261.94;;;-139.71;62.25
3598;BME280;1813;52.016;8.714;2022-11-20T02:33:13;-16261.94;;;-139.71;62.18
3598;BME280;1813;52.016;8.714;2022-11-20T02:35:47;-16261.94;;;-139.71;62.10
3598;BME280;1813;52.016;8.714;2022-11-20T02:38:21;-16261.94;;;-139.71;62.06
3598;BME280;1813;52.016;8.714;2022-11-20T02:40:58;-16261.94;;;-139.71;62.06
3598;BME280;1813;52.016;8.714;2022-11-20T02:43:31;-16261.94;;;-139.71;62.17
3598;BME280;1813;52.016;8.714;2022-11-20T02:46:07;-16261.94;;;-139.71;62.37
3598;BME280;1813;52.016;8.714;2022-11-20T02:48:40;-16261.94;;;-139.71;62.52
3598;BME280;1813;52.016;8.714;2022-11-20T02:51:14;-16261.94;;;-139.71;62.67
3598;BME280;1813;52.016;8.714;2022-11-20T02:53:48;-16261.94;;;-139.71;62.78
3598;BME280;1813;52.016;8.714;2022-11-20T02:56:25;-16261.94;;;-139.71;62.67
3598;BME280;1813;52.016;8.714;2022-11-20T02:58:59;-16261.94;;;-139.71;62.82
3598;BME280;1813;52.016;8.714;2022-11-20T03:01:32;-16261.94;;;-139.71;62.42
3598;BME280;1813;52.016;8.714;2022-11-20T03:04:06;-16261.94;;;-139.71;62.08
3598;BME280;1813;52.016;8.714;2022-11-20T03:06:40;-16261.94;;;-139.71;62.19
3598;BME280;1813;52.016;8.714;2022-11-20T03:09:14;-16261.94;;;-139.71;62.01
3598;BME280;1813;52.016;8.714;2022-11-20T03:11:51;-16261.94;;;-139.71;61.69
3598;BME280;1813;52.016;8.714;2022-11-20T03:14:24;-16261.94;;;-139.71;61.55
3598;BME280;1813;52.016;8.714;2022-11-20T03:16:58;-16261.94;;;-139.71;61.78
3598;BME280;1813;52.016;8.714;2022-11-20T03:19:33;-16261.94;;;-139.71;61.95
3598;BME280;1813;52.016;8.714;2022-11-20T03:22:07;-16261.94;;;-139.71;62.16
3598;BME280;1813;52.016;8.714;2022-11-20T03:24:41;-16261.94;;;-139.71;62.21
3598;BME280;1813;52.016;8.714;2022-11-20T03:27:17;-16261.94;;;-139.71;62.45
3598;BME280;1813;52.016;8.714;2022-11-20T03:29:51;-16261.94;;;-139.71;62.81
3598;BME280;1813;52.016;8.714;2022-11-20T03:32:25;-16261.94;;;-139.71;62.96
3598;BME280;1813;52.016;8.714;2022-11-20T03:34:59;-16261.94;;;-139.71;62.64
3598;BME280;1813;52.016;8.714;2022-11-20T03:37:32;-16261.94;;;-139.71;62.93
3598;BME280;1813;52.016;8.714;2022-11-20T03:40:07;-16261.94;;;-139.71;63.20
3598;BME280;1813;52.016;8.714;2022-11-20T03:42:44;-16261.94;;;-139.71;63.17
3598;BME280;1813;52.016;8.714;2022-11-20T03:45:20;-16261.94;;;-139.71;63.40
3598;BME280;1813;52.016;8.714;2022-11-20T03:47:54;-16261.94;;;-139.71;63.61
3598;BME280;1813;52.016;8.714;2022-11-20T03:50:28;-16261.94;;;-139.71;63.74
3598;BME280;1813;52.016;8.714;2022-11-20T03:53:01;-16261.94;;;-139.71;63.62
3598;BME280;1813;52.016;8.714;2022-11-20T03:55:35;-16261.94;;;-139.71;63.52
3598;BME280;1813;52.016;8.714;2022-11-20T03:58:12;-16261.94;;;-139.71;63.40
3598;BME280;1813;52.016;8.714;2022-11-20T04:00:45;-16261.94;;;-139.71;63.37
3598;BME280;1813;52.016;8.714;2022-11-20T04:03:19;-16261.94;;;-139.71;62.88
3598;BME280;1813;52.016;8.714;2022-11-20T04:05:53;-16261.94;;;-139.71;62.68
3598;BME280;1813;52.016;8.714;2022-11-20T04:08:28;-16261.94;;;-139.71;62.28
3598;BME280;1813;52.016;8.714;2022-11-20T04:11:09;-16261.94;;;-139.71;62.62
3598;BME280;1813;52.016;8.714;2022-11-20T04:13:48;-16261.94;;;-139.71;62.99
3598;BME280;1813;52.016;8.714;2022-11-20T04:16:24;-16261.94;;;-139.71;63.03
3598;BME280;1813;52.016;8.714;2022-11-20T04:19:00;-16261.94;;;-139.71;63.10
3598;BME280;1813;52.016;8.714;2022-11-20T04:21:34;-16261.94;;;-139.71;63.37
3598;BME280;1813;52.016;8.714;2022-11-20T04:24:08;-16261.94;;;-139.71;63.25
3598;BME280;1813;52.016;8.714;2022-11-20T04:26:42;-16261.94;;;-139.71;63.15
3598;BME280;1813;52.016;8.714;2022-11-20T04:29:18;-16261.94;;;-139.71;63.08
3598;BME280;1813;52.016;8.714;2022-11-20T04:31:52;-16261.94;;;-139.71;62.95
3598;BME280;1813;52.016;8.714;2022-11-20T04:34:25;-16261.94;;;-139.71;62.59
3598;BME280;1813;52.016;8.714;2022-11-20T04:37:00;-16261.94;;;-139.71;62.70
3598;BME280;1813;52.016;8.714;2022-11-20T04:39:33;-16261.94;;;-139.71;63.05
3598;BME280;1813;52.016;8.714;2022-11-20T04:42:08;-16261.94;;;-139.71;63.20
3598;BME280;1813;52.016;8.714;2022-11-20T04:44:57;-16261.94;;;-139.71;63.37
3598;BME280;1813;52.016;8.714;2022-11-20T04:47:30;-16261.94;;;-139.71;63.47
3598;BME280;1813;52.016;8.714;2022-11-20T04:50:05;-16261.94;;;-139.71;63.49
3598;BME280;1813;52.016;8.714;2022-11-20T04:52:39;-16261.94;;;-139.71;63.44
3598;BME280;1813;52.016;8.714;2022-11-20T04:55:13;-16261.94;;;-139.71;63.33
3598;BME280;1813;52.016;8.714;2022-11-20T04:57:49;-16261.94;;;-139.71;63.47
3598;BME280;1813;52.016;8.714;2022-11-20T05:00:26;-16261.94;;;-139.71;63.59
3598;BME280;1813;52.016;8.714;2022-11-20T05:03:00;-16261.94;;;-139.71;63.59
3598;BME280;1813;52.016;8.714;2022-11-20T05:05:34;-16261.94;;;-139.71;63.32
3598;BME280;1813;52.016;8.714;2022-11-20T05:08:08;-16261.94;;;-139.71;63.08
3598;BME280;1813;52.016;8.714;2022-11-20T05:10:42;-16261.94;;;-139.71;62.93
3598;BME280;1813;52.016;8.714;2022-11-20T05:13:15;-16261.94;;;-139.71;62.88
3598;BME280;1813;52.016;8.714;2022-11-20T05:15:52;-16261.94;;;-139.71;62.82
3598;BME280;1813;52.016;8.714;2022-11-20T05:18:25;-16261.94;;;-139.71;62.51
3598;BME280;1813;52.016;8.714;2022-11-20T05:20:59;-16261.94;;;-139.71;62.42
3598;BME280;1813;52.016;8.714;2022-11-20T05:23:34;-16261.94;;;-139.71;62.67
3598;BME280;1813;52.016;8.714;2022-11-20T05:26:12;-16261.94;;;-139.71;62.79
3598;BME280;1813;52.016;8.714;2022-11-20T05:28:47;-16261.94;;;-139.71;62.82
3598;BME280;1813;52.016;8.714;2022-11-20T05:31:24;-16261.94;;;-139.71;62.66
3598;BME280;1813;52.016;8.714;2022-11-20T05:33:58;-16261.94;;;-139.71;62.55
3598;BME280;1813;52.016;8.714;2022-11-20T05:36:32;-16261.94;;;-139.71;62.52
3598;BME280;1813;52.016;8.714;2022-11-20T05:39:06;-16261.94;;;-139.71;62.17
3598;BME280;1813;52.016;8.714;2022-11-20T05:41:40;-16261.94;;;-139.71;62.28
3598;BME280;1813;52.016;8.714;2022-11-20T05:44:14;-16261.94;;;-139.71;62.44
3598;BME280;1813;52.016;8.714;2022-11-20T05:46:50;-16261.94;;;-139.71;62.25
3598;BME280;1813;52.016;8.714;2022-11-20T05:49:24;-16261.94;;;-139.71;62.15
3598;BME280;1813;52.016;8.714;2022-11-20T05:51:58;-16261.94;;;-139.71;62.11
3598;BME280;1813;52.016;8.714;2022-11-20T05:54:32;-16261.94;;;-139.71;61.91
3598;BME280;1813;52.016;8.714;2022-11-20T05:57:06;-16261.94;;;-139.71;61.84
3598;BME280;1813;52.016;8.714;2022-11-20T05:59:39;-16261.94;;;-139.71;61.93
3598;BME280;1813;52.016;8.714;2022-11-20T06:02:16;-16261.94;;;-139.71;62.06
3598;BME280;1813;52.016;8.714;2022-11-20T06:04:50;-16261.94;;;-139.71;62.32
3598;BME280;1813;52.016;8.714;2022-11-20T06:07:23;-16261.94;;;-139.71;62.64
3598;BME280;1813;52.016;8.714;2022-11-20T06:10:00;-16261.94;;;-139.71;63.02
3598;BME280;1813;52.016;8.714;2022-11-20T06:12:34;-16261.94;;;-139.71;63.21
3598;BME280;1813;52.016;8.714;2022-11-20T06:15:09;-16261.94;;;-139.71;63.43
3598;BME280;1813;52.016;8.714;2022-11-20T06:17:45;-16261.94;;;-139.71;63.67
3598;BME280;1813;52.016;8.714;2022-11-20T06:20:19;-16261.94;;;-139.71;63.92
3598;BME280;1813;52.016;8.714;2022-11-20T06:22:53;-16261.94;;;-139.71;64.00
3598;BME280;1813;52.016;8.714;2022-11-20T06:25:27;-16261.94;;;-139.71;64.02
3598;BME280;1813;52.016;8.714;2022-11-20T06:28:01;-16261.94;;;-139.71;64.01
3598;BME280;1813;52.016;8.714;2022-11-20T06:30:35;-16261.94;;;-139.71;63.94
3598;BME280;1813;52.016;8.714;2022-11-20T06:33:11;-16261.94;;;-139.71;64.04
3598;BME280;1813;52.016;8.714;2022-11-20T06:35:45;-16261.94;;;-139.71;64.28
3598;BME280;1813;52.016;8.714;2022-11-20T06:38:18;-16261.94;;;-139.71;64.44
3598;BME280;1813;52.016;8.714;2022-11-20T06:40:52;-16261.94;;;-139.71;64.44
3598;BME280;1813;52.016;8.714;2022-11-20T06:43:28;-16261.94;;;-139.71;64.33
3598;BME280;1813;52.016;8.714;2022-11-20T06:46:02;-16261.94;;;-139.71;64.03
3598;BME280;1813;52.016;8.714;2022-11-20T06:48:39;-16261.94;;;-139.71;63.50
3598;BME280;1813;52.016;8.714;2022-11-20T06:51:13;-16261.94;;;-139.71;63.47
3598;BME280;1813;52.016;8.714;2022-11-20T06:53:46;-16261.94;;;-139.71;63.71
3598;BME280;1813;52.016;8.714;2022-11-20T06:56:20;-16261.94;;;-139.71;63.77
3598;BME280;1813;52.016;8.714;2022-11-20T06:58:54;-16261.94;;;-139.71;63.65
3598;BME280;1813;52.016;8.714;2022-11-20T07:01:28;-16261.94;;;-139.71;63.64
3598;BME280;1813;52.016;8.714;2022-11-20T07:04:04;-16261.94;;;-139.71;63.68
3598;BME280;1813;52.016;8.714;2022-11-20T07:06:39;-16261.94;;;-139.71;63.61
3598;BME280;1813;52.016;8.714;2022-11-20T07:09:14;-16261.94;;;-139.71;63.57
3598;BME280;1813;52.016;8.714;2022-11-20T07:11:48;-16261.94;;;-139.71;63.57
3598;BME280;1813;52.016;8.714;2022-11-20T07:14:22;-16261.94;;;-139.71;63.18
3598;BME280;1813;52.016;8.714;2022-11-20T07:16:55;-16261.94;;;-139.71;62.88
3598;BME280;1813;52.016;8.714;2022-11-20T07:19:32;-16261.94;;;-139.71;62.75
3598;BME280;1813;52.016;8.714;2022-11-20T07:22:05;-16261.94;;;-139.71;63.06
3598;BME280;1813;52.016;8.714;2022-11-20T07:24:39;-16261.94;;;-139.71;63.48
3598;BME280;1813;52.016;8.714;2022-11-20T07:27:13;-16261.94;;;-139.71;63.72
3598;BME280;1813;52.016;8.714;2022-11-20T07:29:47;-16261.94;;;-139.71;63.94
3598;BME280;1813;52.016;8.714;2022-11-20T07:32:20;-16261.94;;;-139.71;64.08
3598;BME280;1813;52.016;8.714;2022-11-20T07:34:57;-16261.94;;;-139.71;64.14
3598;BME280;1813;52.016;8.714;2022-11-20T07:37:33;-16261.94;;;-139.71;64.34
3598;BME280;1813;52.016;8.714;2022-11-20T07:40:08;-16261.94;;;-139.71;64.74
3598;BME280;1813;52.016;8.714;2022-11-20T07:42:47;-16261.94;;;-139.71;64.93
3598;BME280;1813;52.016;8.714;2022-11-20T07:45:23;-16261.94;;;-139.71;65.24
3598;BME280;1813;52.016;8.714;2022-11-20T07:47:57;-16261.94;;;-139.71;65.55
3598;BME280;1813;52.016;8.714;2022-11-20T07:50:33;-16261.94;;;-139.71;65.69
3598;BME280;1813;52.016;8.714;2022-11-20T07:53:07;-16261.94;;;-139.71;65.96
3598;BME280;1813;52.016;8.714;2022-11-20T07:55:41;-16261.94;;;-139.71;66.05
3598;BME280;1813;52.016;8.714;2022-11-20T07:58:14;-16261.94;;;-139.71;65.91
3598;BME280;1813;52.016;8.714;2022-11-20T08:00:48;-16261.94;;;-139.71;65.74
3598;BME280;1813;52.016;8.714;2022-11-20T08:03:22;-16261.94;;;-139.71;65.45
3598;BME280;1813;52.016;8.714;2022-11-20T08:06:01;-16261.94;;;-139.71;65.26
3598;BME280;1813;52.016;8.714;2022-11-20T08:08:35;-16261.94;;;-139.71;65.39
3598;BME280;1813;52.016;8.714;2022-11-20T08:11:10;-16261.94;;;-139.71;65.84
3598;BME280;1813;52.016;8.714;2022-11-20T08:13:56;-16261.94;;;-139.71;66.77
3598;BME280;1813;52.016;8.714;2022-11-20T08:16:43;-16261.94;;;-139.71;67.27
3598;BME280;1813;52.016;8.714;2022-11-20T08:19:18;-16261.94;;;-139.71;67.90
3598;BME280;1813;52.016;8.714;2022-11-20T08:21:55;-16261.94;;;-139.71;68.13
3598;BME280;1813;52.016;8.714;2022-11-20T08:24:28;-16261.94;;;-139.71;68.79
3598;BME280;1813;52.016;8.714;2022-11-20T08:27:02;-16261.94;;;-139.71;68.93
3598;BME280;1813;52.016;8.714;2022-11-20T08:29:36;-16261.94;;;-139.71;68.68
3598;BME280;1813;52.016;8.714;2022-11-20T08:32:10;-16261.94;;;-139.71;68.04
3598;BME280;1813;52.016;8.714;2022-11-20T08:34:44;-16261.94;;;-139.71;67.20
3598;BME280;1813;52.016;8.714;2022-11-20T08:37:20;-16261.94;;;-139.71;66.79
3598;BME280;1813;52.016;8.714;2022-11-20T08:39:54;-16261.94;;;-139.71;66.63
3598;BME280;1813;52.016;8.714;2022-11-20T08:42:27;-16261.94;;;-139.71;66.45
3598;BME280;1813;52.016;8.714;2022-11-20T08:45:01;-16261.94;;;-139.71;66.28
3598;BME280;1813;52.016;8.714;2022-11-20T08:47:35;-16261.94;;;-139.71;65.91
3598;BME280;1813;52.016;8.714;2022-11-20T08:50:09;-16261.94;;;-139.71;65.17
3598;BME280;1813;52.016;8.714;2022-11-20T08:52:46;-16261.94;;;-139.71;64.45
3598;BME280;1813;52.016;8.714;2022-11-20T08:55:19;-16261.94;;;-139.71;63.89
3598;BME280;1813;52.016;8.714;2022-11-20T08:57:53;-16261.94;;;-139.71;62.96
3598;BME280;1813;52.016;8.714;2022-11-20T09:00:27;-16261.94;;;-139.71;62.24
3598;BME280;1813;52.016;8.714;2022-11-20T09:03:01;-16261.94;;;-139.71;61.69
3598;BME280;1813;52.016;8.714;2022-11-20T09:05:35;-16261.94;;;-139.71;61.21
3598;BME280;1813;52.016;8.714;2022-11-20T09:08:11;-16261.94;;;-139.71;59.81
3598;BME280;1813;52.016;8.714;2022-11-20T09:10:45;-16261.94;;;-139.71;58.89
3598;BME280;1813;52.016;8.714;2022-11-20T09:13:19;-16261.94;;;-139.71;58.25
3598;BME280;1813;52.016;8.714;2022-11-20T09:15:53;-16261.94;;;-139.71;56.23
3598;BME280;1813;52.016;8.714;2022-11-20T09:18:29;-16261.94;;;-139.71;56.24
3598;BME280;1813;52.016;8.714;2022-11-20T09:21:05;-16261.94;;;-139.71;58.36
3598;BME280;1813;52.016;8.714;2022-11-20T09:23:43;-16261.94;;;-139.71;59.46
3598;BME280;1813;52.016;8.714;2022-11-20T09:26:17;-16261.94;;;-139.71;59.09
3598;BME280;1813;52.016;8.714;2022-11-20T09:28:51;-16261.94;;;-139.71;58.58
3598;BME280;1813;52.016;8.714;2022-11-20T09:31:25;-16261.94;;;-139.71;58.19
3598;BME280;1813;52.016;8.714;2022-11-20T09:33:59;-16261.94;;;-139.71;58.40
3598;BME280;1813;52.016;8.714;2022-11-20T09:36:33;-16261.94;;;-139.71;58.18
3598;BME280;1813;52.016;8.714;2022-11-20T09:39:09;-16261.94;;;-139.71;58.56
3598;BME280;1813;52.016;8.714;2022-11-20T09:42:05;-16261.94;;;-139.71;58.42
3598;BME280;1813;52.016;8.714;2022-11-20T09:44:52;-16261.94;;;-139.71;58.22
3598;BME280;1813;52.016;8.714;2022-11-20T09:47:41;-16261.94;;;-139.71;59.26
3598;BME280;1813;52.016;8.714;2022-11-20T09:50:25;-16261.94;;;-139.71;58.37
3598;BME280;1813;52.016;8.714;2022-11-20T09:53:12;-16261.94;;;-139.71;57.37
3598;BME280;1813;52.016;8.714;2022-11-20T09:55:49;-16261.94;;;-139.71;56.47
3598;BME280;1813;52.016;8.714;2022-11-20T09:58:28;-16261.94;;;-139.71;57.03
3598;BME280;1813;52.016;8.714;2022-11-20T10:01:10;-16261.94;;;-139.71;56.88
3598;BME280;1813;52.016;8.714;2022-11-20T10:03:52;-16261.94;;;-139.71;57.20
3598;BME280;1813;52.016;8.714;2022-11-20T10:06:30;-16261.94;;;-139.71;57.70
3598;BME280;1813;52.016;8.714;2022-11-20T10:09:16;-16261.94;;;-139.71;57.22
3598;BME280;1813;52.016;8.714;2022-11-20T10:12:02;-16261.94;;;-139.71;57.07
3598;BME280;1813;52.016;8.714;2022-11-20T10:14:51;-16261.94;;;-139.71;57.23
3598;BME280;1813;52.016;8.714;2022-11-20T10:17:39;-16261.94;;;-139.71;57.85
3598;BME280;1813;52.016;8.714;2022-11-20T10:20:27;-16261.94;;;-139.71;57.59
3598;BME280;1813;52.016;8.714;2022-11-20T10:23:26;-16261.94;;;-139.71;58.30
3598;BME280;1813;52.016;8.714;2022-11-20T10:26:05;-16261.94;;;-139.71;59.03
3598;BME280;1813;52.016;8.714;2022-11-20T10:29:00;-16261.94;;;-139.71;59.58
3598;BME280;1813;52.016;8.714;2022-11-20T10:31:41;-16261.94;;;-139.71;60.43
3598;BME280;1813;52.016;8.714;2022-11-20T10:34:21;-16261.94;;;-139.71;61.02
3598;BME280;1813;52.016;8.714;2022-11-20T10:36:58;-16261.94;;;-139.71;61.71
3598;BME280;1813;52.016;8.714;2022-11-20T10:39:38;-16261.94;;;-139.71;62.91
3598;BME280;1813;52.016;8.714;2022-11-20T10:42:16;-16261.94;;;-139.71;65.04
3598;BME280;1813;52.016;8.714;2022-11-20T10:45:04;-16261.94;;;-139.71;64.83
3598;BME280;1813;52.016;8.714;2022-11-20T10:47:43;-16261.94;;;-139.71;63.81
3598;BME280;1813;52.016;8.714;2022-11-20T10:50:19;-16261.94;;;-139.71;63.01
3598;BME280;1813;52.016;8.714;2022-11-20T10:53:00;-16261.94;;;-139.71;60.80
3598;BME280;1813;52.016;8.714;2022-11-20T10:55:41;-16261.94;;;-139.71;59.34
3598;BME280;1813;52.016;8.714;2022-11-20T10:58:19;-16261.94;;;-139.71;58.09
3598;BME280;1813;52.016;8.714;2022-11-20T11:01:11;-16261.94;;;-139.71;56.90
3598;BME280;1813;52.016;8.714;2022-11-20T11:03:48;-16261.94;;;-139.71;55.72
3598;BME280;1813;52.016;8.714;2022-11-20T11:06:28;-16261.94;;;-139.71;54.58
3598;BME280;1813;52.016;8.714;2022-11-20T11:09:08;-16261.94;;;-139.71;53.35
3598;BME280;1813;52.016;8.714;2022-11-20T11:11:45;-16261.94;;;-139.71;53.28
3598;BME280;1813;52.016;8.714;2022-11-20T11:14:19;-16261.94;;;-139.71;52.29
3598;BME280;1813;52.016;8.714;2022-11-20T11:16:57;-16261.94;;;-139.71;50.83
3598;BME280;1813;52.016;8.714;2022-11-20T11:19:31;-16261.94;;;-139.71;49.80
3598;BME280;1813;52.016;8.714;2022-11-20T11:22:11;-16261.94;;;-139.71;49.15
3598;BME280;1813;52.016;8.714;2022-11-20T11:24:52;-16261.94;;;-139.71;49.65
3598;BME280;1813;52.016;8.714;2022-11-20T11:27:26;-16261.94;;;-139.71;49.02
3598;BME280;1813;52.016;8.714;2022-11-20T11:30:13;-16261.94;;;-139.71;48.59
3598;BME280;1813;52.016;8.714;2022-11-20T11:32:50;-16261.94;;;-139.71;48.12
3598;BME280;1813;52.016;8.714;2022-11-20T11:35:25;-16261.94;;;-139.71;47.48
3598;BME280;1813;52.016;8.714;2022-11-20T11:38:10;-16261.94;;;-139.71;47.09
3598;BME280;1813;52.016;8.714;2022-11-20T11:40:46;-16261.94;;;-139.71;47.00
3598;BME280;1813;52.016;8.714;2022-11-20T11:43:23;-16261.94;;;-139.71;47.37
3598;BME280;1813;52.016;8.714;2022-11-20T11:46:27;-16261.94;;;-139.71;47.10
3598;BME280;1813;52.016;8.714;2022-11-20T11:49:16;-16261.94;;;-139.71;46.86
3598;BME280;1813;52.016;8.714;2022-11-20T11:51:59;-16261.94;;;-139.71;46.37
3598;BME280;1813;52.016;8.714;2022-11-20T11:54:38;-16261.94;;;-139.71;45.71
3598;BME280;1813;52.016;8.714;2022-11-20T11:57:17;-16261.94;;;-139.71;45.53
3598;BME280;1813;52.016;8.714;2022-11-20T12:00:00;-16261.94;;;-139.71;45.98
3598;BME280;1813;52.016;8.714;2022-11-20T12:02:38;-16261.94;;;-139.71;45.95
3598;BME280;1813;52.016;8.714;2022-11-20T12:05:24;-16261.94;;;-139.71;46.71
3598;BME280;1813;52.016;8.714;2022-11-20T12:08:01;-16261.94;;;-139.71;46.39
3598;BME280;1813;52.016;8.714;2022-11-20T12:10:40;-16261.94;;;-139.71;46.31
3598;BME280;1813;52.016;8.714;2022-11-20T12:13:34;-16261.94;;;-139.71;45.69
3598;BME280;1813;52.016;8.714;2022-11-20T12:16:11;-16261.94;;;-139.71;45.81
3598;BME280;1813;52.016;8.714;2022-11-20T12:18:48;-16261.94;;;-139.71;45.71
3598;BME280;1813;52.016;8.714;2022-11-20T12:21:32;-16261.94;;;-139.71;45.67
3598;BME280;1813;52.016;8.714;2022-11-20T12:24:42;-16261.94;;;-139.71;45.68
3598;BME280;1813;52.016;8.714;2022-11-20T12:27:39;-16261.94;;;-139.71;45.12
3598;BME280;1813;52.016;8.714;2022-11-20T12:30:17;-16261.94;;;-139.71;45.81
3598;BME280;1813;52.016;8.714;2022-11-20T12:33:17;-16261.94;;;-139.71;45.94
3598;BME280;1813;52.016;8.714;2022-11-20T12:36:05;-16261.94;;;-139.71;45.61
3598;BME280;1813;52.016;8.714;2022-11-20T12:39:11;-16261.94;;;-139.71;46.19
3598;BME280;1813;52.016;8.714;2022-11-20T12:45:10;-16261.94;;;-139.71;47.96
3598;BME280;1813;52.016;8.714;2022-11-20T12:50:54;-16261.94;;;-139.71;47.03
3598;BME280;1813;52.016;8.714;2022-11-20T12:53:40;-16261.94;;;-139.71;46.79
3598;BME280;1813;52.016;8.714;2022-11-20T12:56:26;-16261.94;;;-139.71;46.91
3598;BME280;1813;52.016;8.714;2022-11-20T12:59:19;-16261.94;;;-139.71;46.71
3598;BME280;1813;52.016;8.714;2022-11-20T13:02:02;-16261.94;;;-139.71;46.78
3598;BME280;1813;52.016;8.714;2022-11-20T13:04:55;-16261.94;;;-139.71;46.63
3598;BME280;1813;52.016;8.714;2022-11-20T13:07:35;-16261.94;;;-139.71;46.37
3598;BME280;1813;52.016;8.714;2022-11-20T13:10:18;-16261.94;;;-139.71;47.08
3598;BME280;1813;52.016;8.714;2022-11-20T13:13:03;-16261.94;;;-139.71;46.50
3598;BME280;1813;52.016;8.714;2022-11-20T13:15:49;-16261.94;;;-139.71;46.29
3598;BME280;1813;52.016;8.714;2022-11-20T13:18:25;-16261.94;;;-139.71;46.51
3598;BME280;1813;52.016;8.714;2022-11-20T13:20:59;-16261.94;;;-139.71;46.55
3598;BME280;1813;52.016;8.714;2022-11-20T13:23:33;-16261.94;;;-139.71;46.40
3598;BME280;1813;52.016;8.714;2022-11-20T13:26:16;-16261.94;;;-139.71;46.41
3598;BME280;1813;52.016;8.714;2022-11-20T13:29:07;-16261.94;;;-139.71;46.44
3598;BME280;1813;52.016;8.714;2022-11-20T13:31:44;-16261.94;;;-139.71;46.49
3598;BME280;1813;52.016;8.714;2022-11-20T13:34:24;-16261.94;;;-139.71;47.26
3598;BME280;1813;52.016;8.714;2022-11-20T13:36:59;-16261.94;;;-139.71;47.92
3598;BME280;1813;52.016;8.714;2022-11-20T13:39:35;-16261.94;;;-139.71;48.50
3598;BME280;1813;52.016;8.714;2022-11-20T13:42:23;-16261.94;;;-139.71;48.78
3598;BME280;1813;52.016;8.714;2022-11-20T13:45:09;-16261.94;;;-139.71;48.55
3598;BME280;1813;52.016;8.714;2022-11-20T13:47:48;-16261.94;;;-139.71;48.31